Delta Virtual Airport Information Service

Lyon Saint Exupery Airport

ICAO: LFLL Country: France
Latitude: 45.7256 Longitude: 5.08111
Latest Arrival : AFR6960631 (LGTS-LFLL) Latest Departure : AFR6963991 (LFLL-LGTS)


WX CaptureLIVE
Data provided by noaa.gov | Fetched at 21:57:24

METAR : LFLL 250230Z 15012KT 130V190 CAVOK 12/09 Q1013 NOSIG

TAF : LFLL 242300Z 2500/2606 16010KT CAVOK BECMG 2501/2504 18015G25KT TEMPO 2510/2515 18020G35KT PROB30 TEMPO 2511/2514 18025G43KT BECMG 2519/2521 21015KT -RA BKN035 BECMG 2522/2602 16010KT TEMPO 2521/2606 32010KT 3000 +RA BKN014 FEW030TCU


Runway Data for LFLL
Data provided by openaviationdata.com

Runway ID Mag Var Hdg Length Elevation Surface ILS Freq ILS Id ILS Slope
18L 0 175° 8757 ft 821 ft Asphalt 109.1 LSS 3
18R 0 175° 13115 ft 821 ft Asphalt -- -- --
36L 0 355° 13115 ft 821 ft Asphalt 110.75 SAN 3
36R 0 355° 8757 ft 821 ft Asphalt 111.5 LSN 3

Lyon Saint Exupery Airport, France
Use only for reference purposes



Not for navigational purposes.